San Antonio, Texas
Traffic Map
Current Weather Conditions
San Antonio, Texas
Few Clouds
Few Clouds
81°
Feels Like: 81°
Wind Chill: 81° Ceiling: Unl
Heat Index: 81° Visibility: 10mi
Dew Point: 44° Wind: 6mph
Humidity: 27% Direction: ° ()
Pressure: 29.9in Gusts: 0mph
Raw Report DataKSAT 241751Z VRB05KT 10SM FEW250 27/07 A2990 RMK AO2 SLP109 T02720067 10278 20128 58018
Traffic Incident Summary
Active as of:
Severity:
Category:
InformationThere was an issue retrieving the traffic information for this location. Please try a different location or try again shortly.
Advertisements
Track Severe Weather on mobile